Time;durP1;ratioP1;P1;durP2;ratioP2;P2;SDS_P1;SDS_P2;PMS_P1;PMS_P2;Temp;Humidity;BMP_temperature;BMP_pressure;BME280_temperature;BME280_humidity;BME280_pressure;Samples;Min_cycle;Max_cycle;Signal;HPM_P1;HPM_P2
2023/06/09 00:00:17;;;;;;;21.27;16.20;;;15.80;99.90;;;;;;5043399;28;20032;-66
2023/06/09 00:02:44;;;;;;;22.00;16.70;;;15.80;99.90;;;;;;5034389;28;20409;-66
2023/06/09 00:05:11;;;;;;;27.20;18.10;;;15.80;99.90;;;;;;5033741;28;20029;-65
2023/06/09 00:07:37;;;;;;;24.45;17.98;;;15.70;99.90;;;;;;5035124;28;20442;-66
2023/06/09 00:10:04;;;;;;;27.35;18.00;;;15.60;99.90;;;;;;5036843;28;20025;-65
2023/06/09 00:12:30;;;;;;;27.73;19.15;;;15.60;99.90;;;;;;5037063;28;20021;-65
2023/06/09 00:14:55;;;;;;;21.38;16.88;;;15.60;99.90;;;;;;5037465;28;20108;-65
2023/06/09 00:17:24;;;;;;;26.45;17.63;;;15.60;99.90;;;;;;5038408;28;20075;-65
2023/06/09 00:19:52;;;;;;;25.05;18.13;;;15.50;99.90;;;;;;5040955;28;20025;-65
2023/06/09 00:22:19;;;;;;;22.45;17.50;;;15.50;99.90;;;;;;5037899;28;20096;-65
2023/06/09 00:24:46;;;;;;;26.80;18.50;;;15.50;99.90;;;;;;5036640;28;20051;-65
2023/06/09 00:27:12;;;;;;;34.28;18.20;;;15.40;99.90;;;;;;5035812;28;20079;-66
2023/06/09 00:29:37;;;;;;;25.38;18.48;;;15.30;99.90;;;;;;5034408;28;20381;-65
2023/06/09 00:32:04;;;;;;;29.95;19.77;;;15.20;99.90;;;;;;5036770;28;20032;-65
2023/06/09 00:34:30;;;;;;;29.55;20.50;;;15.30;99.90;;;;;;5034876;28;20516;-65
2023/06/09 00:36:55;;;;;;;22.35;17.60;;;15.30;99.90;;;;;;5036263;28;20123;-63
2023/06/09 00:39:21;;;;;;;26.80;19.55;;;15.30;99.90;;;;;;5033135;28;20100;-65
2023/06/09 00:41:47;;;;;;;29.08;20.15;;;15.30;99.90;;;;;;5042841;28;20025;-65
2023/06/09 00:44:13;;;;;;;35.03;19.75;;;15.20;99.90;;;;;;5039082;28;20105;-65
2023/06/09 00:46:39;;;;;;;25.92;18.02;;;15.20;99.90;;;;;;5043516;28;20536;-65
2023/06/09 00:49:06;;;;;;;25.52;18.58;;;15.10;99.90;;;;;;5038161;28;20029;-64
2023/06/09 00:51:35;;;;;;;26.25;18.80;;;15.10;99.90;;;;;;5038855;28;20025;-65
2023/06/09 00:54:01;;;;;;;32.67;20.98;;;15.10;99.90;;;;;;5040549;28;20037;-65
2023/06/09 00:56:29;;;;;;;29.38;20.50;;;15.10;99.90;;;;;;5039574;28;20473;-66
2023/06/09 00:58:54;;;;;;;32.20;21.08;;;15.10;99.90;;;;;;5042237;28;20041;-64
2023/06/09 01:01:20;;;;;;;39.22;20.85;;;15.10;99.90;;;;;;5040918;28;20064;-65
2023/06/09 01:03:46;;;;;;;29.58;20.60;;;15.00;99.90;;;;;;5039771;28;20032;-65
2023/06/09 01:06:26;;;;;;;30.08;20.45;;;14.90;99.90;;;;;;5041079;28;20022;-66
2023/06/09 01:09:22;;;;;;;31.73;20.38;;;14.90;99.90;;;;;;5043189;28;20487;-66
2023/06/09 01:12:06;;;;;;;35.25;21.85;;;14.90;99.90;;;;;;5040445;28;20037;-65
2023/06/09 01:14:44;;;;;;;31.55;22.30;;;14.80;99.90;;;;;;5039312;28;20029;-65
2023/06/09 01:17:13;;;;;;;34.10;20.15;;;14.80;99.90;;;;;;5039069;28;20033;-66
2023/06/09 01:19:45;;;;;;;32.72;20.75;;;14.90;99.90;;;;;;5045754;28;20058;-65
2023/06/09 01:22:20;;;;;;;33.50;20.58;;;14.80;99.90;;;;;;5044817;28;20116;-65
2023/06/09 01:24:55;;;;;;;;;;;14.80;99.90;;;;;;5046495;28;20079;-65
2023/06/09 01:27:21;;;;;;;;;;;14.80;99.90;;;;;;5043193;28;19909;-66
2023/06/09 01:29:51;;;;;;;31.00;20.40;;;14.70;99.90;;;;;;5039096;28;19915;-65
2023/06/09 01:32:18;;;;;;;30.05;22.05;;;14.80;99.90;;;;;;5042696;28;20067;-66
2023/06/09 01:34:44;;;;;;;32.72;21.35;;;14.70;99.90;;;;;;5040147;28;20020;-65
2023/06/09 01:37:11;;;;;;;33.97;21.17;;;14.70;99.90;;;;;;5043098;28;20096;-65
2023/06/09 01:39:37;;;;;;;36.35;23.23;;;14.60;99.90;;;;;;5039645;28;20029;-65
2023/06/09 01:42:03;;;;;;;35.25;21.85;;;14.60;99.90;;;;;;5038693;28;20026;-65
2023/06/09 01:44:29;;;;;;;37.70;20.92;;;14.60;99.90;;;;;;5038223;28;20034;-65
2023/06/09 01:46:55;;;;;;;34.53;21.55;;;14.60;99.90;;;;;;5038730;28;20112;-65
2023/06/09 01:49:27;;;;;;;39.72;23.17;;;14.60;99.90;;;;;;5040150;28;20061;-64
2023/06/09 01:52:00;;;;;;;36.75;21.98;;;14.60;99.90;;;;;;5042825;28;20120;-65
2023/06/09 01:54:59;;;;;;;33.47;21.73;;;14.60;99.90;;;;;;5036652;28;20030;-65
2023/06/09 01:57:38;;;;;;;31.27;20.95;;;14.60;99.90;;;;;;5038350;28;20041;-65
2023/06/09 02:00:06;;;;;;;36.20;21.63;;;14.50;99.90;;;;;;5037479;28;20025;-64
2023/06/09 02:02:33;;;;;;;30.45;20.17;;;14.50;99.90;;;;;;5041230;28;20104;-65
2023/06/09 02:05:04;;;;;;;33.15;21.55;;;14.50;99.90;;;;;;5043835;28;20493;-65
2023/06/09 02:07:30;;;;;;;32.92;21.45;;;14.60;99.90;;;;;;5040657;28;20033;-64
2023/06/09 02:09:56;;;;;;;27.80;20.25;;;14.50;99.90;;;;;;5038400;28;20025;-65
2023/06/09 02:12:22;;;;;;;42.30;20.77;;;14.60;99.90;;;;;;5040175;28;20487;-65
2023/06/09 02:14:48;;;;;;;35.10;21.52;;;14.50;99.90;;;;;;5043839;28;20029;-65
2023/06/09 02:17:14;;;;;;;29.38;20.15;;;14.40;99.90;;;;;;5044905;28;20021;-66
2023/06/09 02:19:39;;;;;;;32.83;21.88;;;14.40;99.90;;;;;;5044329;28;20021;-65
2023/06/09 02:22:06;;;;;;;31.38;21.33;;;14.50;99.90;;;;;;5041219;28;20071;-65
2023/06/09 02:24:33;;;;;;;32.78;21.05;;;14.40;99.90;;;;;;5044462;28;20021;-65
2023/06/09 02:26:59;;;;;;;30.58;21.10;;;14.50;99.90;;;;;;5042245;28;20175;-65
2023/06/09 02:29:25;;;;;;;32.42;20.90;;;14.40;99.90;;;;;;5037772;28;20040;-66
2023/06/09 02:31:56;;;;;;;29.83;20.35;;;14.40;99.90;;;;;;5035560;28;20487;-65
2023/06/09 02:34:22;;;;;;;28.17;19.52;;;14.40;99.90;;;;;;5042704;28;20028;-65
2023/06/09 02:36:52;;;;;;;29.38;20.90;;;14.40;99.90;;;;;;5044512;28;20053;-65
2023/06/09 02:39:21;;;;;;;33.58;18.58;;;14.30;99.90;;;;;;5040109;28;20078;-66
2023/06/09 02:41:47;;;;;;;27.67;19.40;;;14.30;99.90;;;;;;5040032;28;20384;-65
2023/06/09 02:44:13;;;;;;;26.73;18.90;;;14.30;99.90;;;;;;5040791;28;20036;-65
2023/06/09 02:46:40;;;;;;;28.80;18.90;;;14.40;99.90;;;;;;5043210;28;20033;-65
2023/06/09 02:49:09;;;;;;;26.33;19.33;;;14.40;99.90;;;;;;5041757;28;20032;-65
2023/06/09 02:51:35;;;;;;;27.25;19.60;;;14.40;99.90;;;;;;5041593;28;20021;-65
2023/06/09 02:54:02;;;;;;;28.65;19.35;;;14.30;99.90;;;;;;5043014;28;20021;-65
2023/06/09 02:56:27;;;;;;;25.75;18.60;;;14.30;99.90;;;;;;5045393;28;20032;-65
2023/06/09 02:58:53;;;;;;;29.60;18.80;;;14.30;99.90;;;;;;5044302;28;20033;-66
2023/06/09 03:01:20;;;;;;;26.73;19.70;;;14.30;99.90;;;;;;5041939;28;20025;-64
2023/06/09 03:03:46;;;;;;;27.58;19.08;;;14.20;99.90;;;;;;5040438;28;20681;-66
2023/06/09 03:06:14;;;;;;;29.88;20.27;;;14.20;99.90;;;;;;5041647;28;20108;-66
2023/06/09 03:08:43;;;;;;;28.42;19.45;;;14.20;99.90;;;;;;5040444;28;20032;-65
2023/06/09 03:11:09;;;;;;;37.05;19.88;;;14.20;99.90;;;;;;5042635;28;20394;-65
2023/06/09 03:13:35;;;;;;;31.75;19.05;;;14.20;99.90;;;;;;5037403;28;20025;-65
2023/06/09 03:16:02;;;;;;;27.45;18.77;;;14.20;99.90;;;;;;5042904;28;20043;-66
2023/06/09 03:18:27;;;;;;;29.65;19.90;;;14.10;99.90;;;;;;5042347;28;20052;-65
2023/06/09 03:20:53;;;;;;;27.67;19.77;;;14.10;99.90;;;;;;5044020;28;20458;-62
2023/06/09 03:23:20;;;;;;;32.45;20.55;;;14.00;99.90;;;;;;5044744;28;20064;-64
2023/06/09 03:25:46;;;;;;;26.60;18.23;;;14.00;99.90;;;;;;5045154;28;20056;-64
2023/06/09 03:28:12;;;;;;;29.75;20.58;;;14.10;99.90;;;;;;5045085;28;20072;-65
2023/06/09 03:30:38;;;;;;;30.58;18.98;;;14.00;99.90;;;;;;5038632;28;20029;-63
2023/06/09 03:33:05;;;;;;;28.45;20.27;;;13.90;99.90;;;;;;5042187;28;20488;-63
2023/06/09 03:35:31;;;;;;;27.88;18.38;;;13.90;99.90;;;;;;5041129;28;20071;-65
2023/06/09 03:37:56;;;;;;;27.70;19.70;;;14.00;99.90;;;;;;5045090;28;20499;-65
2023/06/09 03:40:22;;;;;;;28.55;19.77;;;14.00;99.90;;;;;;5041814;28;20056;-65
2023/06/09 03:42:47;;;;;;;32.20;20.45;;;13.90;99.90;;;;;;5043397;28;20025;-65
2023/06/09 03:45:13;;;;;;;34.35;20.27;;;13.90;99.90;;;;;;5036914;28;20025;-65
2023/06/09 03:47:39;;;;;;;33.70;21.15;;;13.90;99.90;;;;;;5048959;28;20058;-65
2023/06/09 03:50:05;;;;;;;32.22;21.48;;;13.90;99.90;;;;;;5041330;28;20025;-64
2023/06/09 03:52:31;;;;;;;36.50;22.80;;;13.90;99.90;;;;;;5042063;28;20021;-64
2023/06/09 03:54:56;;;;;;;36.20;23.63;;;13.90;99.90;;;;;;5046400;28;20029;-65
2023/06/09 03:57:22;;;;;;;37.40;22.88;;;13.80;99.90;;;;;;5044658;28;20033;-65
2023/06/09 03:59:47;;;;;;;31.17;21.55;;;13.90;99.90;;;;;;5039967;28;20028;-65
2023/06/09 04:02:13;;;;;;;38.65;20.42;;;13.90;99.90;;;;;;5042127;28;20031;-64
2023/06/09 04:04:38;;;;;;;30.77;21.17;;;13.90;99.90;;;;;;5042672;28;20029;-64
2023/06/09 04:07:05;;;;;;;34.20;21.45;;;13.90;99.90;;;;;;5039654;28;20409;-62
2023/06/09 04:09:32;;;;;;;31.98;21.52;;;13.90;99.90;;;;;;5039726;28;20535;-65
2023/06/09 04:11:58;;;;;;;29.83;20.67;;;13.90;99.90;;;;;;5044956;28;20033;-65
2023/06/09 04:14:23;;;;;;;30.55;20.17;;;13.90;99.90;;;;;;5040704;28;21576;-65
2023/06/09 04:16:49;;;;;;;30.67;21.13;;;14.00;99.90;;;;;;5038248;28;20025;-66
2023/06/09 04:19:14;;;;;;;32.95;21.00;;;14.00;99.90;;;;;;5044587;28;20057;-64
2023/06/09 04:21:40;;;;;;;34.28;21.70;;;14.00;99.90;;;;;;5043412;28;20043;-65
2023/06/09 04:24:08;;;;;;;33.10;19.63;;;14.10;99.90;;;;;;5046237;28;20089;-64
2023/06/09 04:26:37;;;;;;;30.88;22.60;;;14.10;99.90;;;;;;5045671;28;20025;-66
2023/06/09 04:29:03;;;;;;;33.80;22.77;;;14.10;99.90;;;;;;5044602;28;20108;-64
2023/06/09 04:31:33;;;;;;;32.72;21.30;;;14.20;99.90;;;;;;5046797;28;20432;-65
2023/06/09 04:34:05;;;;;;;33.28;23.27;;;14.20;99.90;;;;;;5042380;28;20031;-65
2023/06/09 04:36:32;;;;;;;34.88;22.95;;;14.30;99.90;;;;;;5041418;28;20060;-64
2023/06/09 04:38:59;;;;;;;35.08;23.52;;;14.30;99.90;;;;;;5047633;28;20033;-64
2023/06/09 04:41:26;;;;;;;36.75;23.80;;;14.30;99.90;;;;;;5041531;28;20021;-64
2023/06/09 04:43:53;;;;;;;37.40;24.05;;;14.40;99.90;;;;;;5045976;28;20029;-63
2023/06/09 04:46:24;;;;;;;37.53;22.83;;;14.50;99.90;;;;;;5041078;28;20025;-62
2023/06/09 04:48:51;;;;;;;35.45;23.92;;;14.50;99.90;;;;;;5039485;28;20480;-63
2023/06/09 04:51:17;;;;;;;35.70;24.02;;;14.60;99.90;;;;;;5041308;28;20372;-63
2023/06/09 04:53:42;;;;;;;37.80;25.02;;;14.70;99.90;;;;;;5034085;28;20037;-62
2023/06/09 04:56:08;;;;;;;36.28;26.00;;;14.80;99.90;;;;;;5037348;28;20145;-62
2023/06/09 04:58:34;;;;;;;37.20;23.75;;;14.80;99.90;;;;;;5045100;28;20388;-63
2023/06/09 05:01:00;;;;;;;41.25;25.67;;;14.90;99.90;;;;;;5038767;28;20035;-63
2023/06/09 05:03:27;;;;;;;41.72;25.40;;;15.00;99.90;;;;;;5045658;28;20032;-63
2023/06/09 05:05:53;;;;;;;36.92;24.95;;;15.00;99.90;;;;;;5040006;28;20025;-64
2023/06/09 05:08:18;;;;;;;38.80;25.75;;;15.00;99.90;;;;;;5045152;28;20032;-63
2023/06/09 05:10:44;;;;;;;39.38;27.17;;;15.10;99.90;;;;;;5046910;28;20506;-64
2023/06/09 05:13:09;;;;;;;37.13;25.92;;;15.20;99.90;;;;;;5047387;28;20037;-63
2023/06/09 05:15:36;;;;;;;37.72;26.30;;;15.20;99.90;;;;;;5041746;28;20029;-63
2023/06/09 05:18:01;;;;;;;41.08;26.45;;;15.20;99.90;;;;;;5041919;28;20399;-63
2023/06/09 05:20:27;;;;;;;41.17;26.88;;;15.30;99.90;;;;;;5046139;28;20039;-63
2023/06/09 05:22:52;;;;;;;38.92;25.85;;;15.30;99.90;;;;;;5040188;28;20056;-63
2023/06/09 05:25:19;;;;;;;40.10;26.50;;;15.40;99.90;;;;;;5045595;28;20052;-62
2023/06/09 05:27:44;;;;;;;37.03;26.63;;;15.40;99.90;;;;;;5043440;28;20102;-63
2023/06/09 05:30:10;;;;;;;39.00;25.80;;;15.40;99.90;;;;;;5039879;28;20530;-63
2023/06/09 05:32:36;;;;;;;38.25;26.17;;;15.50;99.90;;;;;;5038681;28;20025;-63
2023/06/09 05:35:01;;;;;;;43.80;25.20;;;15.60;99.90;;;;;;5040251;28;21773;-63
2023/06/09 05:37:27;;;;;;;42.72;25.85;;;15.60;99.90;;;;;;5044094;28;20601;-63
2023/06/09 05:39:53;;;;;;;39.15;25.92;;;15.70;99.90;;;;;;5045406;28;20257;-63
2023/06/09 05:42:18;;;;;;;36.95;25.85;;;15.70;99.90;;;;;;5041587;28;20116;-63
2023/06/09 05:44:44;;;;;;;40.10;25.20;;;15.80;99.90;;;;;;5043036;28;20418;-63
2023/06/09 05:47:10;;;;;;;32.35;23.58;;;15.90;99.90;;;;;;5041416;28;20395;-62
2023/06/09 05:49:35;;;;;;;35.13;23.52;;;15.90;99.90;;;;;;5048400;28;20053;-63
2023/06/09 05:52:02;;;;;;;34.22;22.60;;;16.00;99.90;;;;;;5042892;28;20025;-63
2023/06/09 05:54:28;;;;;;;30.00;22.42;;;16.00;99.90;;;;;;5039304;28;20029;-63
2023/06/09 05:56:54;;;;;;;35.22;24.45;;;16.00;99.90;;;;;;5041319;28;20030;-64
2023/06/09 05:59:23;;;;;;;38.50;24.25;;;16.10;99.90;;;;;;5044265;28;20022;-64
2023/06/09 06:01:49;;;;;;;34.45;24.40;;;16.20;99.90;;;;;;5042749;28;20033;-64
2023/06/09 06:04:16;;;;;;;32.42;21.95;;;16.20;99.90;;;;;;5046618;28;20123;-63
2023/06/09 06:06:41;;;;;;;28.70;20.63;;;16.30;99.90;;;;;;5044922;28;20722;-63
2023/06/09 06:09:07;;;;;;;23.33;17.45;;;16.30;99.90;;;;;;5043650;28;20107;-64
2023/06/09 06:11:33;;;;;;;28.13;20.95;;;16.30;99.90;;;;;;5046084;28;20054;-64
2023/06/09 06:13:58;;;;;;;29.92;19.80;;;16.30;99.90;;;;;;5040894;28;20120;-64
2023/06/09 06:16:24;;;;;;;25.25;17.80;;;16.40;99.90;;;;;;5042395;28;20044;-63
2023/06/09 06:18:49;;;;;;;30.10;19.63;;;16.40;99.90;;;;;;5046972;28;20386;-63
2023/06/09 06:21:16;;;;;;;24.17;17.73;;;16.40;99.90;;;;;;5043662;28;20037;-63
2023/06/09 06:23:42;;;;;;;32.78;18.85;;;16.50;99.90;;;;;;5043147;28;20560;-63
2023/06/09 06:26:08;;;;;;;32.40;17.23;;;16.50;99.90;;;;;;5045123;28;20024;-63
2023/06/09 06:28:33;;;;;;;25.17;18.08;;;16.60;99.90;;;;;;5042520;28;20021;-63
2023/06/09 06:30:59;;;;;;;24.35;17.13;;;16.60;99.90;;;;;;5042854;28;20478;-63
2023/06/09 06:33:29;;;;;;;27.95;16.67;;;16.70;99.90;;;;;;5039160;28;20083;-63
2023/06/09 06:35:56;;;;;;;26.27;17.70;;;16.70;99.90;;;;;;5039157;28;20056;-63
2023/06/09 06:38:22;;;;;;;25.63;16.00;;;16.80;99.90;;;;;;5036133;28;20087;-64
2023/06/09 06:40:48;;;;;;;20.60;14.07;;;16.80;99.90;;;;;;5036150;28;20037;-63
2023/06/09 06:43:14;;;;;;;21.65;15.07;;;16.80;99.90;;;;;;5040471;28;20080;-62
2023/06/09 06:45:40;;;;;;;23.75;14.93;;;16.80;99.90;;;;;;5043658;28;20373;-63
2023/06/09 06:48:05;;;;;;;19.42;14.85;;;16.80;99.90;;;;;;5039459;28;20076;-63
2023/06/09 06:50:32;;;;;;;18.55;13.75;;;16.90;99.90;;;;;;5038376;28;20041;-63
2023/06/09 06:52:58;;;;;;;19.40;13.20;;;16.90;99.90;;;;;;5039563;28;20112;-63
2023/06/09 06:55:23;;;;;;;17.05;12.88;;;16.90;99.90;;;;;;5041912;28;20108;-63
2023/06/09 06:57:49;;;;;;;24.02;14.45;;;17.00;99.90;;;;;;5039331;28;20033;-63
2023/06/09 07:00:15;;;;;;;19.13;11.98;;;17.00;99.90;;;;;;5040637;28;20652;-63
2023/06/09 07:02:44;;;;;;;18.58;11.50;;;17.10;99.90;;;;;;5043840;28;20033;-63
2023/06/09 07:05:10;;;;;;;17.20;12.52;;;17.20;99.90;;;;;;5040642;28;20550;-63
2023/06/09 07:07:36;;;;;;;16.15;11.95;;;17.20;99.90;;;;;;5035500;28;20096;-63
2023/06/09 07:10:03;;;;;;;18.90;11.75;;;17.30;99.90;;;;;;5039884;28;20108;-63
2023/06/09 07:12:28;;;;;;;14.82;10.30;;;17.30;99.90;;;;;;5030854;28;20025;-63
2023/06/09 07:14:55;;;;;;;14.05;11.45;;;17.50;99.90;;;;;;5043394;28;20074;-63
2023/06/09 07:17:21;;;;;;;17.27;11.93;;;17.50;99.90;;;;;;5039564;28;20105;-63
2023/06/09 07:19:46;;;;;;;15.75;10.35;;;17.60;99.90;;;;;;5039337;28;20113;-62
2023/06/09 07:22:12;;;;;;;14.77;11.68;;;17.70;99.90;;;;;;5036303;28;20040;-63
2023/06/09 07:24:37;;;;;;;12.80;10.50;;;17.80;99.90;;;;;;5037178;28;20021;-63
2023/06/09 07:27:03;;;;;;;16.20;10.80;;;17.90;99.90;;;;;;5036714;28;20039;-63
2023/06/09 07:29:29;;;;;;;15.07;10.85;;;18.00;99.90;;;;;;5044170;28;20028;-63
2023/06/09 07:31:54;;;;;;;13.65;8.75;;;18.00;99.90;;;;;;5037079;28;20040;-63
2023/06/09 07:34:20;;;;;;;12.60;9.07;;;18.10;99.90;;;;;;5037960;28;20037;-63
2023/06/09 07:36:50;;;;;;;12.90;9.13;;;18.20;99.90;;;;;;5038301;28;20166;-63
2023/06/09 07:39:16;;;;;;;12.85;9.25;;;18.30;99.90;;;;;;5038251;28;20024;-62
2023/06/09 07:41:41;;;;;;;11.98;9.38;;;18.40;99.90;;;;;;5038211;28;20789;-64
2023/06/09 07:44:08;;;;;;;12.00;8.82;;;18.60;99.90;;;;;;5041447;28;20032;-63
2023/06/09 07:46:34;;;;;;;9.07;7.75;;;18.60;99.90;;;;;;5040681;28;20379;-63
2023/06/09 07:48:59;;;;;;;14.75;9.85;;;18.80;99.90;;;;;;5039558;28;20022;-63
2023/06/09 07:51:26;;;;;;;11.80;9.05;;;18.80;99.90;;;;;;5035172;28;20036;-63
2023/06/09 07:53:52;;;;;;;11.70;9.02;;;18.90;99.90;;;;;;5041774;28;20032;-62
2023/06/09 07:56:17;;;;;;;12.45;9.52;;;19.00;99.90;;;;;;5041311;28;20505;-62
2023/06/09 07:58:43;;;;;;;12.70;8.75;;;19.20;99.90;;;;;;5043821;28;20068;-63
2023/06/09 08:01:09;;;;;;;11.85;9.50;;;19.20;99.90;;;;;;5050368;28;20037;-62
2023/06/09 08:03:35;;;;;;;14.25;9.48;;;19.20;99.90;;;;;;5049148;28;20095;-62
2023/06/09 08:06:02;;;;;;;14.93;9.57;;;19.30;99.90;;;;;;5048599;28;20049;-63
2023/06/09 08:08:31;;;;;;;14.02;8.38;;;19.30;99.90;;;;;;5046072;28;20055;-63
2023/06/09 08:10:57;;;;;;;10.38;8.63;;;19.40;99.90;;;;;;5043487;28;20028;-62
2023/06/09 08:13:23;;;;;;;13.10;8.48;;;19.50;99.90;;;;;;5042946;28;20033;-63
2023/06/09 08:15:48;;;;;;;10.35;8.55;;;19.60;99.90;;;;;;5048647;28;20033;-63
2023/06/09 08:18:14;;;;;;;14.93;8.82;;;19.70;99.90;;;;;;5043721;28;20056;-62
2023/06/09 08:20:40;;;;;;;10.45;8.00;;;19.80;99.90;;;;;;5049585;28;20028;-61
2023/06/09 08:23:07;;;;;;;13.98;8.38;;;20.00;99.90;;;;;;5045304;28;20541;-62
2023/06/09 08:25:34;;;;;;;10.95;7.75;;;20.10;99.90;;;;;;5048516;28;20026;-63
2023/06/09 08:28:00;;;;;;;9.32;8.25;;;20.20;99.90;;;;;;5042190;28;20163;-62
2023/06/09 08:30:26;;;;;;;10.38;8.23;;;20.30;99.90;;;;;;5045685;28;20455;-63
2023/06/09 08:32:51;;;;;;;11.10;8.55;;;20.30;99.90;;;;;;5040701;28;20063;-63
2023/06/09 08:35:17;;;;;;;12.30;7.90;;;20.40;99.90;;;;;;5042012;28;20082;-62
2023/06/09 08:37:44;;;;;;;10.70;8.10;;;20.60;99.90;;;;;;5043292;28;20549;-63
2023/06/09 08:40:09;;;;;;;10.45;8.05;;;20.70;99.90;;;;;;5047519;28;20057;-63
2023/06/09 08:42:37;;;;;;;11.75;8.50;;;20.70;99.90;;;;;;5041540;28;20482;-62
2023/06/09 08:45:06;;;;;;;9.73;8.05;;;20.80;99.90;;;;;;5043464;28;20437;-62
2023/06/09 08:47:33;;;;;;;10.30;7.60;;;21.00;99.90;;;;;;5043399;28;20025;-62
2023/06/09 08:49:59;;;;;;;13.30;7.70;;;21.00;99.90;;;;;;5047107;28;20020;-63
2023/06/09 08:52:26;;;;;;;9.18;7.15;;;21.10;99.90;;;;;;5041138;28;20506;-62
2023/06/09 08:54:57;;;;;;;10.00;7.28;;;21.30;99.90;;;;;;5043780;28;20127;-63
2023/06/09 08:57:23;;;;;;;9.30;7.35;;;21.40;99.90;;;;;;5044310;28;20024;-63
2023/06/09 08:59:50;;;;;;;8.68;6.75;;;21.50;99.90;;;;;;5047831;28;20034;-62
2023/06/09 09:02:17;;;;;;;12.02;6.88;;;21.60;99.90;;;;;;5043442;28;20037;-62
2023/06/09 09:04:43;;;;;;;9.02;7.13;;;21.70;99.90;;;;;;5048623;28;20024;-62
2023/06/09 09:07:11;;;;;;;14.65;7.68;;;21.90;99.90;;;;;;5043586;28;20036;-62
2023/06/09 09:09:37;;;;;;;9.18;7.43;;;22.00;99.90;;;;;;5044438;28;20029;-62
2023/06/09 09:12:03;;;;;;;9.30;7.20;;;22.20;99.90;;;;;;5048070;28;20082;-62
2023/06/09 09:14:28;;;;;;;7.97;6.63;;;22.30;99.90;;;;;;5044594;28;20115;-62
2023/06/09 09:16:54;;;;;;;8.63;7.05;;;22.40;99.90;;;;;;5039915;28;20101;-63
2023/06/09 09:19:27;;;;;;;10.02;7.30;;;22.60;99.90;;;;;;5042929;28;20044;-61
2023/06/09 09:21:56;;;;;;;9.02;6.20;;;22.70;99.90;;;;;;5045696;28;20052;-63
2023/06/09 09:24:29;;;;;;;8.80;6.20;;;22.80;99.90;;;;;;5042631;28;20049;-61
2023/06/09 09:26:56;;;;;;;9.80;6.63;;;22.90;99.90;;;;;;5042877;28;20025;-62
2023/06/09 09:29:26;;;;;;;8.05;6.07;;;23.10;99.90;;;;;;5030227;28;20017;-63
2023/06/09 09:31:57;;;;;;;9.13;6.40;;;23.20;99.90;;;;;;5032412;28;20028;-62
2023/06/09 09:34:25;;;;;;;9.57;5.88;;;23.40;99.90;;;;;;5033344;28;20131;-63
2023/06/09 09:36:58;;;;;;;9.20;6.57;;;23.50;99.90;;;;;;5041196;28;20074;-62
2023/06/09 09:39:24;;;;;;;6.82;5.82;;;23.70;99.90;;;;;;5037286;28;20403;-61
2023/06/09 09:42:03;;;;;;;7.70;5.88;;;23.90;99.90;;;;;;5048308;28;20033;-62
2023/06/09 09:44:43;;;;;;;10.50;5.35;;;24.00;99.90;;;;;;5043801;28;20031;-62
2023/06/09 09:47:13;;;;;;;11.35;5.20;;;24.20;99.90;;;;;;5040241;28;20566;-63
2023/06/09 09:49:50;;;;;;;6.57;5.18;;;24.40;99.90;;;;;;5042147;28;20021;-63
2023/06/09 09:52:21;;;;;;;7.90;5.78;;;24.50;99.90;;;;;;5044255;28;20027;-63
2023/06/09 09:54:47;;;;;;;6.10;5.05;;;24.70;99.90;;;;;;5038932;28;20091;-63
2023/06/09 09:57:13;;;;;;;7.20;5.30;;;24.90;99.90;;;;;;5036189;28;20376;-63
2023/06/09 09:59:38;;;;;;;7.47;4.78;;;25.10;99.90;;;;;;5042905;28;20041;-64
2023/06/09 10:02:05;;;;;;;9.65;5.10;;;25.20;99.90;;;;;;5044511;28;20021;-63
2023/06/09 10:04:31;;;;;;;7.07;4.85;;;25.40;99.90;;;;;;5037626;28;20303;-63
2023/06/09 10:07:01;;;;;;;7.03;5.32;;;25.50;99.90;;;;;;5042139;28;20028;-63
2023/06/09 10:09:27;;;;;;;7.47;4.90;;;25.60;99.90;;;;;;5037042;28;20408;-63
2023/06/09 10:11:54;;;;;;;8.52;5.30;;;25.80;99.90;;;;;;5034850;28;20033;-63
2023/06/09 10:14:21;;;;;;;10.18;4.82;;;25.80;99.90;;;;;;5042006;28;20031;-63
2023/06/09 10:16:49;;;;;;;5.97;4.70;;;25.90;99.90;;;;;;5045577;28;20028;-64
2023/06/09 10:19:17;;;;;;;6.03;4.70;;;26.10;99.90;;;;;;5044836;28;20029;-63
2023/06/09 10:21:43;;;;;;;6.50;5.13;;;26.30;99.90;;;;;;5037927;28;21186;-64
2023/06/09 10:24:11;;;;;;;8.40;4.95;;;26.50;99.90;;;;;;5041388;28;20025;-63
2023/06/09 10:26:38;;;;;;;6.95;5.13;;;26.60;99.90;;;;;;5042731;28;20029;-63
2023/06/09 10:29:11;;;;;;;6.82;4.53;;;26.70;99.90;;;;;;5043597;28;20028;-63
2023/06/09 10:31:39;;;;;;;8.45;4.78;;;26.90;99.90;;;;;;5037488;28;20033;-63
2023/06/09 10:34:07;;;;;;;6.13;4.28;;;26.90;99.90;;;;;;5031989;28;20510;-63
2023/06/09 10:36:40;;;;;;;6.35;4.80;;;27.00;99.90;;;;;;5041003;28;20129;-63
2023/06/09 10:39:17;;;;;;;4.70;4.22;;;27.30;99.90;;;;;;5042919;28;20021;-63
2023/06/09 10:42:04;;;;;;;7.13;4.80;;;27.50;99.90;;;;;;5042307;28;20076;-64
2023/06/09 10:44:41;;;;;;;6.05;4.45;;;27.60;99.90;;;;;;5041526;28;20024;-64
2023/06/09 10:47:08;;;;;;;5.22;4.55;;;27.90;99.90;;;;;;5040048;28;20025;-64
2023/06/09 10:49:40;;;;;;;5.97;4.47;;;27.50;99.90;;;;;;5043727;28;20021;-64
2023/06/09 10:52:35;;;;;;;6.63;5.03;;;27.50;99.90;;;;;;5038643;28;20025;-63
2023/06/09 10:55:15;;;;;;;4.93;4.10;;;27.60;99.90;;;;;;5041991;28;20028;-63
2023/06/09 10:57:41;;;;;;;6.10;4.43;;;27.90;99.90;;;;;;5038923;28;20040;-64
2023/06/09 11:00:11;;;;;;;4.72;4.22;;;28.10;98.10;;;;;;5039238;28;20109;-63
2023/06/09 11:02:44;;;;;;;6.05;4.40;;;28.30;99.90;;;;;;5040412;28;20037;-63
2023/06/09 11:05:11;;;;;;;5.15;4.30;;;28.50;99.90;;;;;;5041347;28;20032;-63
2023/06/09 11:07:51;;;;;;;4.85;4.30;;;28.70;96.40;;;;;;5041766;28;20055;-62
2023/06/09 11:10:19;;;;;;;5.78;4.38;;;28.60;95.40;;;;;;5040332;28;20396;-63
2023/06/09 11:12:46;;;;;;;5.93;4.32;;;28.60;99.20;;;;;;5044101;28;20037;-63
2023/06/09 11:15:15;;;;;;;6.43;4.72;;;28.70;99.90;;;;;;5044578;28;20021;-64
2023/06/09 11:17:45;;;;;;;7.57;4.47;;;28.80;94.80;;;;;;5042718;28;20040;-62
2023/06/09 11:20:14;;;;;;;5.88;4.47;;;28.60;99.90;;;;;;5041156;28;20029;-64
2023/06/09 11:22:49;;;;;;;6.45;4.55;;;28.60;99.90;;;;;;5045579;28;20025;-64
2023/06/09 11:25:15;;;;;;;6.07;4.47;;;29.00;99.90;;;;;;5045955;28;20083;-64
2023/06/09 11:27:41;;;;;;;7.07;4.15;;;29.20;99.90;;;;;;5043700;28;20033;-64
2023/06/09 11:30:12;;;;;;;8.60;3.70;;;29.20;96.60;;;;;;5040775;28;20043;-63
2023/06/09 11:32:44;;;;;;;5.15;4.00;;;29.20;97.60;;;;;;5042023;28;20115;-63
2023/06/09 11:35:40;;;;;;;5.82;4.00;;;29.00;99.10;;;;;;5039989;28;20032;-64
2023/06/09 11:38:10;;;;;;;7.03;3.80;;;28.70;99.00;;;;;;5040039;28;20021;-64
2023/06/09 11:40:38;;;;;;;4.50;3.97;;;29.10;97.10;;;;;;5042535;28;20072;-63
2023/06/09 11:43:09;;;;;;;8.25;3.88;;;29.30;95.20;;;;;;5040538;28;20483;-64
2023/06/09 11:45:36;;;;;;;5.38;3.95;;;29.40;93.50;;;;;;5041031;28;20080;-64
2023/06/09 11:48:05;;;;;;;4.03;3.58;;;29.80;94.10;;;;;;5047714;28;20108;-64
2023/06/09 11:50:40;;;;;;;6.60;3.88;;;29.70;94.30;;;;;;5042661;28;20045;-64
2023/06/09 11:53:07;;;;;;;12.68;4.28;;;29.10;94.60;;;;;;5042415;28;20025;-63
2023/06/09 11:55:33;;;;;;;9.32;3.65;;;29.10;95.00;;;;;;5037334;28;20021;-64
2023/06/09 11:58:02;;;;;;;4.18;3.78;;;29.10;94.10;;;;;;5041206;28;20025;-64
2023/06/09 12:00:29;;;;;;;7.00;4.13;;;29.30;92.20;;;;;;5051524;28;20117;-63
2023/06/09 12:02:56;;;;;;;4.57;3.80;;;29.00;97.20;;;;;;5038223;28;20043;-64
2023/06/09 12:05:23;;;;;;;10.30;5.18;;;28.60;93.20;;;;;;5045004;28;20021;-64
2023/06/09 12:07:51;;;;;;;4.75;3.72;;;28.70;95.80;;;;;;5038950;28;20059;-64
2023/06/09 12:10:19;;;;;;;10.10;4.20;;;29.20;92.70;;;;;;5045041;28;20117;-63
2023/06/09 12:12:50;;;;;;;8.50;3.92;;;29.60;93.20;;;;;;5036924;28;20029;-63
2023/06/09 12:15:18;;;;;;;6.55;4.28;;;30.00;94.70;;;;;;5043152;28;20387;-64
2023/06/09 12:17:47;;;;;;;8.48;4.35;;;30.40;92.80;;;;;;5042636;28;20033;-64
2023/06/09 12:20:22;;;;;;;8.30;3.85;;;30.20;86.40;;;;;;5041291;28;20108;-64
2023/06/09 12:22:49;;;;;;;5.00;3.95;;;30.10;91.00;;;;;;5043726;28;20034;-63
2023/06/09 12:25:26;;;;;;;5.35;3.88;;;29.50;90.90;;;;;;5035075;28;20033;-63
2023/06/09 12:27:56;;;;;;;6.43;3.65;;;29.20;92.00;;;;;;5043282;28;20368;-63
2023/06/09 12:30:35;;;;;;;10.13;4.43;;;29.20;93.20;;;;;;5038591;28;20029;-62
2023/06/09 12:33:09;;;;;;;6.25;3.95;;;29.80;93.00;;;;;;5038511;28;20021;-63
2023/06/09 12:35:38;;;;;;;4.43;3.75;;;29.80;90.80;;;;;;5039358;28;20096;-64